Terminal Aerodrome Forecast
Issued by NWS

Home | Current Version | Previous Version | Text Only | Print | Product List | Glossary On
Versions: 1 2 3 4 5 6 7 8 9 10 11 12 13 14 15 16 17 18 19 20 21
000
FTUS43 KGRB 111141
TAFMTW
TAF
KMTW 111141Z 1112/1212 19005KT 4SM -SN OVC025
     FM111300 19007KT 1 1/2SM -SN OVC015
     FM111600 21007KT 3SM -FZDZSN BKN015 OVC025
     FM112000 27006KT 5SM -SHSN OVC025
     FM120000 32014G22KT P6SM BKN035
     FM120200 33020G31KT P6SM SCT035=

USA.gov is the U.S. government's official web portal to all federal, state and local government web resources and services.